createdAt,value
2018-07-05T07:38:15.603Z,96782.30
2018-07-05T07:43:13.040Z,96778.45
2018-07-05T07:48:11.793Z,96780.02
2018-07-05T07:53:09.699Z,96775.57
2018-07-05T07:58:10.525Z,96789.40
2018-07-05T08:03:09.270Z,96790.12
2018-07-05T08:08:08.118Z,96796.81
2018-07-05T08:13:07.818Z,96802.36
2018-07-05T08:18:00.592Z,96796.03
2018-07-05T08:22:54.389Z,96803.31
2018-07-05T08:27:50.713Z,96803.36
2018-07-05T08:32:49.037Z,96804.86
2018-07-05T08:37:47.410Z,96820.02
2018-07-05T08:42:45.012Z,96826.08
2018-07-05T08:47:42.367Z,96840.09
2018-07-05T08:52:41.072Z,96842.97
2018-07-05T08:57:39.516Z,96850.77
2018-07-05T09:02:38.088Z,96852.91
2018-07-05T09:07:36.284Z,96860.39
2018-07-05T09:12:34.885Z,96868.38
2018-07-05T09:17:32.184Z,96873.88
2018-07-05T09:22:30.521Z,96873.33
2018-07-05T09:27:28.201Z,96883.94
2018-07-05T09:32:25.732Z,96891.84
2018-07-05T09:37:23.239Z,96888.17
2018-07-05T09:42:21.637Z,96889.09
2018-07-05T09:47:20.987Z,96891.64
2018-07-05T09:52:18.596Z,96883.63
2018-07-05T09:57:17.928Z,96878.12
2018-07-05T10:02:15.232Z,96872.36
2018-07-05T10:07:12.392Z,96872.27
2018-07-05T10:12:09.886Z,96877.08
2018-07-05T10:17:07.431Z,96870.69
2018-07-05T10:22:05.284Z,96867.23
2018-07-05T10:27:02.714Z,96865.20
2018-07-05T10:32:16.074Z,96858.59
2018-07-05T10:37:19.961Z,96859.30
2018-07-05T10:42:33.257Z,96863.25
2018-07-05T10:47:48.497Z,96867.87
2018-07-05T12:45:44.192Z,96850.00
2018-07-05T12:50:58.448Z,96839.64
2018-07-05T12:56:11.898Z,96830.55
2018-07-05T13:01:25.192Z,96821.05
2018-07-05T13:06:39.165Z,96818.77
2018-07-05T13:11:53.223Z,96815.55
2018-07-05T13:17:07.638Z,96815.09
2018-07-05T13:22:19.777Z,96823.00
2018-07-05T13:27:33.871Z,96825.03
2018-07-05T13:32:46.534Z,96824.03
2018-07-05T13:38:01.515Z,96831.59
2018-07-05T13:43:14.981Z,96827.44
2018-07-05T13:48:29.050Z,96827.02
2018-07-05T13:53:43.349Z,96814.83
2018-07-05T13:58:50.995Z,96822.36
2018-07-05T14:04:04.276Z,96822.44
2018-07-05T14:09:18.697Z,96820.42
2018-07-05T14:14:32.009Z,96817.19
2018-07-05T14:19:50.758Z,96826.68
2018-07-05T14:25:05.168Z,96822.66
2018-07-05T14:30:18.465Z,96820.69
2018-07-05T14:35:32.533Z,96823.78
2018-07-05T14:40:46.702Z,96824.39
2018-07-05T14:45:59.792Z,96819.91
2018-07-05T14:51:13.059Z,96820.69
2018-07-05T14:56:26.214Z,96815.16
2018-07-05T15:01:39.487Z,96816.50
2018-07-05T15:06:52.943Z,96824.55
2018-07-05T15:12:06.549Z,96814.59
2018-07-05T15:17:24.827Z,96802.59
2018-07-05T15:22:38.571Z,96810.96
2018-07-05T15:27:53.002Z,96798.17
2018-07-05T15:33:07.210Z,96789.80
2018-07-05T15:38:20.533Z,96781.57
2018-07-05T15:43:33.919Z,96791.78
2018-07-05T15:48:48.396Z,96796.09
2018-07-05T15:54:01.685Z,96793.38
2018-07-05T15:59:16.035Z,96804.50
2018-07-05T16:04:28.961Z,96797.91
2018-07-05T16:09:43.300Z,96799.66
2018-07-05T16:14:57.359Z,96799.36
2018-07-05T16:20:11.453Z,96792.42
2018-07-05T16:25:25.764Z,96790.00
2018-07-05T16:30:40.096Z,96779.81
2018-07-05T16:35:58.112Z,96776.59
2018-07-05T16:41:12.310Z,96769.88
2018-07-05T16:46:26.448Z,96760.63
2018-07-05T16:51:39.745Z,96753.79
2018-07-05T16:56:54.428Z,96757.10
2018-07-05T17:02:07.664Z,96758.31
2018-07-05T17:07:21.767Z,96756.64
2018-07-05T17:12:36.067Z,96760.67
2018-07-05T17:17:50.094Z,96766.11
2018-07-05T17:23:04.216Z,96774.47
2018-07-05T17:28:18.536Z,96778.66
2018-07-05T17:33:32.827Z,96784.37
2018-07-05T17:38:46.940Z,96785.60
2018-07-05T17:44:01.210Z,96786.91
2018-07-05T17:49:15.288Z,96791.41
2018-07-05T17:54:29.582Z,96802.16
2018-07-05T17:59:45.753Z,96800.33
2018-07-05T18:04:59.120Z,96814.86
2018-07-05T18:10:13.196Z,96808.67
2018-07-05T18:15:27.713Z,96816.00
2018-07-05T18:20:43.964Z,96823.88
2018-07-05T18:25:57.201Z,96829.70
2018-07-05T18:31:10.695Z,96836.95
2018-07-05T18:36:25.085Z,96846.15
2018-07-05T18:41:33.428Z,96861.53
2018-07-05T18:46:47.807Z,96867.10
2018-07-05T18:52:01.315Z,96868.45
2018-07-05T18:57:18.328Z,96866.33
2018-07-05T19:02:32.413Z,96879.56
2018-07-05T19:07:46.518Z,96884.98
2018-07-05T19:13:00.114Z,96900.56
2018-07-05T19:18:14.436Z,96895.73
2018-07-05T19:23:29.424Z,96924.84
2018-07-05T19:28:43.555Z,96934.70
2018-07-05T19:33:57.628Z,96938.48
2018-07-05T19:39:11.917Z,96964.44
2018-07-05T19:44:26.972Z,96985.95
2018-07-05T19:49:41.120Z,96977.10
2018-07-05T19:54:57.598Z,96975.61
2018-07-05T20:00:11.974Z,96990.92
2018-07-05T20:05:26.291Z,96989.87
2018-07-05T20:10:40.325Z,96985.38
2018-07-05T20:15:53.553Z,96987.08
2018-07-05T20:21:07.747Z,96999.84
2018-07-05T20:26:21.943Z,96986.59
2018-07-05T20:31:35.064Z,96986.62
2018-07-05T20:36:49.119Z,96995.41
2018-07-05T20:42:03.298Z,96994.36
2018-07-05T20:47:20.461Z,96985.89
2018-07-05T20:52:33.561Z,97000.75
2018-07-05T20:57:47.779Z,96991.73
2018-07-05T21:03:01.843Z,97000.75
2018-07-05T21:08:16.054Z,96998.64
2018-07-05T21:13:30.443Z,96995.20
2018-07-05T21:18:44.604Z,97000.24
2018-07-05T21:23:58.625Z,96994.66
2018-07-05T21:29:11.694Z,97001.84
2018-07-05T21:34:24.954Z,97003.68
2018-07-05T21:39:38.342Z,97000.52
2018-07-05T21:44:51.539Z,97002.89
2018-07-05T21:50:05.692Z,96997.31
2018-07-05T21:55:20.007Z,97001.57
2018-07-05T22:00:34.108Z,97005.28
2018-07-05T22:05:48.317Z,97007.39
2018-07-05T22:11:02.878Z,97005.00
2018-07-05T22:16:16.269Z,97017.73
2018-07-05T22:21:29.662Z,97021.44
2018-07-05T22:26:41.960Z,97016.40
2018-07-05T22:31:57.339Z,97011.87
2018-07-05T22:37:10.372Z,97007.88
2018-07-05T22:42:24.637Z,97009.48
2018-07-05T22:47:37.800Z,97004.96
2018-07-05T22:52:51.968Z,96996.50
2018-07-05T22:58:06.128Z,96995.95
2018-07-05T23:03:19.345Z,96997.05
2018-07-05T23:08:32.633Z,96995.95
2018-07-05T23:13:46.759Z,96988.26
2018-07-05T23:18:59.991Z,96992.23
2018-07-05T23:24:12.153Z,96993.56
2018-07-05T23:29:25.390Z,96993.30
2018-07-05T23:34:39.416Z,96995.17
2018-07-05T23:39:53.487Z,97010.82
2018-07-05T23:45:07.664Z,97009.50
2018-07-05T23:50:21.542Z,97009.53
2018-07-05T23:55:37.169Z,97011.37
